sensor_id;sensor_type;location;lat;lon;timestamp;P1;durP1;ratioP1;P2;durP2;ratioP2
82835;SDS011;72587;50.746;8.246;2023-12-04T00:00:02;36.70;;;15.63;;
82835;SDS011;72587;50.746;8.246;2023-12-04T00:02:28;36.50;;;14.73;;
82835;SDS011;72587;50.746;8.246;2023-12-04T00:04:54;38.53;;;15.63;;
82835;SDS011;72587;50.746;8.246;2023-12-04T00:07:19;40.33;;;15.30;;
82835;SDS011;72587;50.746;8.246;2023-12-04T00:09:45;38.03;;;15.40;;
82835;SDS011;72587;50.746;8.246;2023-12-04T00:12:11;36.67;;;14.40;;
82835;SDS011;72587;50.746;8.246;2023-12-04T00:14:36;39.57;;;15.07;;
82835;SDS011;72587;50.746;8.246;2023-12-04T00:17:02;38.17;;;15.70;;
82835;SDS011;72587;50.746;8.246;2023-12-04T00:19:27;32.10;;;14.13;;
82835;SDS011;72587;50.746;8.246;2023-12-04T00:21:53;35.30;;;14.37;;
82835;SDS011;72587;50.746;8.246;2023-12-04T00:24:19;35.40;;;15.33;;
82835;SDS011;72587;50.746;8.246;2023-12-04T00:26:44;35.63;;;14.97;;
82835;SDS011;72587;50.746;8.246;2023-12-04T00:29:10;36.97;;;15.47;;
82835;SDS011;72587;50.746;8.246;2023-12-04T00:31:36;35.13;;;14.10;;
82835;SDS011;72587;50.746;8.246;2023-12-04T00:34:01;36.90;;;14.73;;
82835;SDS011;72587;50.746;8.246;2023-12-04T00:36:27;33.53;;;14.93;;
82835;SDS011;72587;50.746;8.246;2023-12-04T00:38:52;33.10;;;13.93;;
82835;SDS011;72587;50.746;8.246;2023-12-04T00:41:18;37.13;;;14.80;;
82835;SDS011;72587;50.746;8.246;2023-12-04T00:43:44;32.80;;;13.73;;
82835;SDS011;72587;50.746;8.246;2023-12-04T00:46:09;33.40;;;14.10;;
82835;SDS011;72587;50.746;8.246;2023-12-04T00:48:35;31.70;;;13.40;;
82835;SDS011;72587;50.746;8.246;2023-12-04T00:51:00;35.67;;;14.13;;
82835;SDS011;72587;50.746;8.246;2023-12-04T00:53:26;38.07;;;14.27;;
82835;SDS011;72587;50.746;8.246;2023-12-04T00:55:52;39.13;;;14.57;;
82835;SDS011;72587;50.746;8.246;2023-12-04T00:58:17;34.30;;;13.53;;
82835;SDS011;72587;50.746;8.246;2023-12-04T01:00:43;38.47;;;15.33;;
82835;SDS011;72587;50.746;8.246;2023-12-04T01:03:08;38.60;;;14.43;;
82835;SDS011;72587;50.746;8.246;2023-12-04T01:05:34;42.67;;;15.57;;
82835;SDS011;72587;50.746;8.246;2023-12-04T01:07:59;33.60;;;13.37;;
82835;SDS011;72587;50.746;8.246;2023-12-04T01:10:25;34.13;;;13.37;;
82835;SDS011;72587;50.746;8.246;2023-12-04T01:12:51;29.87;;;13.07;;
82835;SDS011;72587;50.746;8.246;2023-12-04T01:15:16;31.30;;;13.60;;
82835;SDS011;72587;50.746;8.246;2023-12-04T01:17:42;31.17;;;13.30;;
82835;SDS011;72587;50.746;8.246;2023-12-04T01:20:07;36.70;;;14.40;;
82835;SDS011;72587;50.746;8.246;2023-12-04T01:22:33;31.40;;;14.07;;
82835;SDS011;72587;50.746;8.246;2023-12-04T01:24:59;35.27;;;14.43;;
82835;SDS011;72587;50.746;8.246;2023-12-04T01:27:25;33.93;;;14.07;;
82835;SDS011;72587;50.746;8.246;2023-12-04T01:29:50;28.70;;;13.27;;
82835;SDS011;72587;50.746;8.246;2023-12-04T01:32:16;33.40;;;13.67;;
82835;SDS011;72587;50.746;8.246;2023-12-04T01:34:41;35.33;;;13.67;;
82835;SDS011;72587;50.746;8.246;2023-12-04T01:37:07;33.87;;;13.77;;
82835;SDS011;72587;50.746;8.246;2023-12-04T01:39:32;29.47;;;13.47;;
82835;SDS011;72587;50.746;8.246;2023-12-04T01:41:58;33.70;;;14.00;;
82835;SDS011;72587;50.746;8.246;2023-12-04T01:44:24;30.73;;;12.60;;
82835;SDS011;72587;50.746;8.246;2023-12-04T01:46:49;28.97;;;12.53;;
82835;SDS011;72587;50.746;8.246;2023-12-04T01:49:15;30.13;;;12.60;;
82835;SDS011;72587;50.746;8.246;2023-12-04T01:51:41;33.20;;;12.83;;
82835;SDS011;72587;50.746;8.246;2023-12-04T01:54:08;33.43;;;13.53;;
82835;SDS011;72587;50.746;8.246;2023-12-04T01:56:34;32.67;;;12.47;;
82835;SDS011;72587;50.746;8.246;2023-12-04T01:59:02;30.73;;;12.30;;
82835;SDS011;72587;50.746;8.246;2023-12-04T02:01:28;33.87;;;13.27;;
82835;SDS011;72587;50.746;8.246;2023-12-04T02:03:54;30.83;;;13.50;;
82835;SDS011;72587;50.746;8.246;2023-12-04T02:06:21;32.17;;;12.77;;
82835;SDS011;72587;50.746;8.246;2023-12-04T02:08:47;31.33;;;13.03;;
82835;SDS011;72587;50.746;8.246;2023-12-04T02:11:13;33.03;;;13.53;;
82835;SDS011;72587;50.746;8.246;2023-12-04T02:13:39;27.67;;;12.23;;
82835;SDS011;72587;50.746;8.246;2023-12-04T02:16:05;30.77;;;12.90;;
82835;SDS011;72587;50.746;8.246;2023-12-04T02:18:34;33.30;;;13.43;;
82835;SDS011;72587;50.746;8.246;2023-12-04T02:21:01;36.07;;;13.83;;
82835;SDS011;72587;50.746;8.246;2023-12-04T02:23:27;36.63;;;14.40;;
82835;SDS011;72587;50.746;8.246;2023-12-04T02:26:01;36.40;;;13.07;;
82835;SDS011;72587;50.746;8.246;2023-12-04T02:28:34;33.47;;;13.30;;
82835;SDS011;72587;50.746;8.246;2023-12-04T02:31:01;29.93;;;12.43;;
82835;SDS011;72587;50.746;8.246;2023-12-04T02:33:30;31.60;;;13.63;;
82835;SDS011;72587;50.746;8.246;2023-12-04T02:35:58;31.67;;;13.43;;
82835;SDS011;72587;50.746;8.246;2023-12-04T02:38:25;29.97;;;13.27;;
82835;SDS011;72587;50.746;8.246;2023-12-04T02:40:52;32.67;;;13.70;;
82835;SDS011;72587;50.746;8.246;2023-12-04T02:43:17;34.00;;;14.67;;
82835;SDS011;72587;50.746;8.246;2023-12-04T02:45:43;32.57;;;13.67;;
82835;SDS011;72587;50.746;8.246;2023-12-04T02:48:08;31.97;;;13.70;;
82835;SDS011;72587;50.746;8.246;2023-12-04T02:50:35;32.17;;;13.53;;
82835;SDS011;72587;50.746;8.246;2023-12-04T02:53:01;32.30;;;13.13;;
82835;SDS011;72587;50.746;8.246;2023-12-04T02:55:26;29.10;;;13.13;;
82835;SDS011;72587;50.746;8.246;2023-12-04T02:57:52;29.87;;;13.03;;
82835;SDS011;72587;50.746;8.246;2023-12-04T03:00:18;25.37;;;12.07;;
82835;SDS011;72587;50.746;8.246;2023-12-04T03:02:44;30.17;;;12.97;;
82835;SDS011;72587;50.746;8.246;2023-12-04T03:05:09;32.27;;;12.83;;
82835;SDS011;72587;50.746;8.246;2023-12-04T03:07:35;29.90;;;12.63;;
82835;SDS011;72587;50.746;8.246;2023-12-04T03:10:01;29.90;;;12.60;;
82835;SDS011;72587;50.746;8.246;2023-12-04T03:12:26;31.47;;;12.13;;
82835;SDS011;72587;50.746;8.246;2023-12-04T03:14:52;30.60;;;12.93;;
82835;SDS011;72587;50.746;8.246;2023-12-04T03:17:17;30.60;;;13.27;;
82835;SDS011;72587;50.746;8.246;2023-12-04T03:19:43;35.83;;;13.93;;
82835;SDS011;72587;50.746;8.246;2023-12-04T03:22:08;30.03;;;12.37;;
82835;SDS011;72587;50.746;8.246;2023-12-04T03:24:34;29.50;;;12.33;;
82835;SDS011;72587;50.746;8.246;2023-12-04T03:26:59;27.47;;;12.70;;
82835;SDS011;72587;50.746;8.246;2023-12-04T03:29:25;28.57;;;12.37;;
82835;SDS011;72587;50.746;8.246;2023-12-04T03:31:51;29.47;;;13.03;;
82835;SDS011;72587;50.746;8.246;2023-12-04T03:34:16;30.53;;;12.80;;
82835;SDS011;72587;50.746;8.246;2023-12-04T03:36:42;26.87;;;11.77;;
82835;SDS011;72587;50.746;8.246;2023-12-04T03:39:07;29.03;;;12.13;;
82835;SDS011;72587;50.746;8.246;2023-12-04T03:41:33;27.40;;;11.43;;
82835;SDS011;72587;50.746;8.246;2023-12-04T03:43:58;31.40;;;12.30;;
82835;SDS011;72587;50.746;8.246;2023-12-04T03:46:24;29.67;;;12.53;;
82835;SDS011;72587;50.746;8.246;2023-12-04T03:48:50;31.53;;;12.60;;
82835;SDS011;72587;50.746;8.246;2023-12-04T03:51:16;30.20;;;12.20;;
82835;SDS011;72587;50.746;8.246;2023-12-04T03:53:41;30.03;;;12.47;;
82835;SDS011;72587;50.746;8.246;2023-12-04T03:56:07;29.13;;;12.93;;
82835;SDS011;72587;50.746;8.246;2023-12-04T03:58:33;32.40;;;13.57;;
82835;SDS011;72587;50.746;8.246;2023-12-04T04:00:59;29.17;;;11.70;;
82835;SDS011;72587;50.746;8.246;2023-12-04T04:03:24;29.43;;;12.87;;
82835;SDS011;72587;50.746;8.246;2023-12-04T04:05:50;29.67;;;12.07;;
82835;SDS011;72587;50.746;8.246;2023-12-04T04:08:15;30.07;;;12.53;;
82835;SDS011;72587;50.746;8.246;2023-12-04T04:10:41;34.83;;;12.83;;
82835;SDS011;72587;50.746;8.246;2023-12-04T04:13:06;33.87;;;13.03;;
82835;SDS011;72587;50.746;8.246;2023-12-04T04:15:32;29.37;;;11.80;;
82835;SDS011;72587;50.746;8.246;2023-12-04T04:17:57;30.00;;;11.87;;
82835;SDS011;72587;50.746;8.246;2023-12-04T04:20:23;30.93;;;13.50;;
82835;SDS011;72587;50.746;8.246;2023-12-04T04:22:49;31.40;;;13.20;;
82835;SDS011;72587;50.746;8.246;2023-12-04T04:25:15;30.47;;;13.30;;
82835;SDS011;72587;50.746;8.246;2023-12-04T04:27:41;29.23;;;12.17;;
82835;SDS011;72587;50.746;8.246;2023-12-04T04:30:07;30.17;;;12.10;;
82835;SDS011;72587;50.746;8.246;2023-12-04T04:32:33;32.37;;;13.07;;
82835;SDS011;72587;50.746;8.246;2023-12-04T04:34:59;28.27;;;12.17;;
82835;SDS011;72587;50.746;8.246;2023-12-04T04:37:24;32.93;;;13.43;;
82835;SDS011;72587;50.746;8.246;2023-12-04T04:39:50;30.23;;;13.30;;
82835;SDS011;72587;50.746;8.246;2023-12-04T04:42:15;29.20;;;12.60;;
82835;SDS011;72587;50.746;8.246;2023-12-04T04:44:41;34.33;;;13.37;;
82835;SDS011;72587;50.746;8.246;2023-12-04T04:47:06;33.07;;;13.00;;
82835;SDS011;72587;50.746;8.246;2023-12-04T04:49:32;33.47;;;13.03;;
82835;SDS011;72587;50.746;8.246;2023-12-04T04:51:58;33.50;;;13.17;;
82835;SDS011;72587;50.746;8.246;2023-12-04T04:54:23;34.27;;;13.80;;
82835;SDS011;72587;50.746;8.246;2023-12-04T04:56:49;35.97;;;13.60;;
82835;SDS011;72587;50.746;8.246;2023-12-04T04:59:14;31.03;;;12.93;;
82835;SDS011;72587;50.746;8.246;2023-12-04T05:01:40;34.43;;;13.43;;
82835;SDS011;72587;50.746;8.246;2023-12-04T05:04:06;31.57;;;12.37;;
82835;SDS011;72587;50.746;8.246;2023-12-04T05:06:31;31.03;;;12.83;;
82835;SDS011;72587;50.746;8.246;2023-12-04T05:08:57;32.00;;;13.33;;
82835;SDS011;72587;50.746;8.246;2023-12-04T05:11:23;33.50;;;13.60;;
82835;SDS011;72587;50.746;8.246;2023-12-04T05:13:48;30.17;;;13.47;;
82835;SDS011;72587;50.746;8.246;2023-12-04T05:16:14;31.20;;;13.13;;
82835;SDS011;72587;50.746;8.246;2023-12-04T05:18:40;30.40;;;12.43;;
82835;SDS011;72587;50.746;8.246;2023-12-04T05:21:09;31.40;;;12.90;;
82835;SDS011;72587;50.746;8.246;2023-12-04T05:23:36;29.40;;;12.57;;
82835;SDS011;72587;50.746;8.246;2023-12-04T05:26:02;31.90;;;13.10;;
82835;SDS011;72587;50.746;8.246;2023-12-04T05:28:29;34.33;;;14.23;;
82835;SDS011;72587;50.746;8.246;2023-12-04T05:30:55;34.57;;;12.90;;
82835;SDS011;72587;50.746;8.246;2023-12-04T05:33:20;30.70;;;12.73;;
82835;SDS011;72587;50.746;8.246;2023-12-04T05:35:49;41.23;;;15.03;;
82835;SDS011;72587;50.746;8.246;2023-12-04T05:38:16;30.07;;;12.03;;
82835;SDS011;72587;50.746;8.246;2023-12-04T05:40:42;33.47;;;14.03;;
82835;SDS011;72587;50.746;8.246;2023-12-04T05:43:08;34.13;;;13.37;;
82835;SDS011;72587;50.746;8.246;2023-12-04T05:45:34;32.67;;;14.93;;
82835;SDS011;72587;50.746;8.246;2023-12-04T05:47:59;49.87;;;18.63;;
82835;SDS011;72587;50.746;8.246;2023-12-04T05:50:25;34.60;;;13.67;;
82835;SDS011;72587;50.746;8.246;2023-12-04T05:52:50;34.87;;;14.00;;
82835;SDS011;72587;50.746;8.246;2023-12-04T05:55:16;29.13;;;12.50;;
82835;SDS011;72587;50.746;8.246;2023-12-04T05:57:43;30.13;;;12.33;;
82835;SDS011;72587;50.746;8.246;2023-12-04T06:00:09;32.50;;;12.90;;
82835;SDS011;72587;50.746;8.246;2023-12-04T06:02:38;31.90;;;12.83;;
82835;SDS011;72587;50.746;8.246;2023-12-04T06:05:04;32.00;;;13.00;;
82835;SDS011;72587;50.746;8.246;2023-12-04T06:07:30;36.97;;;14.37;;
82835;SDS011;72587;50.746;8.246;2023-12-04T06:09:55;39.17;;;15.50;;
82835;SDS011;72587;50.746;8.246;2023-12-04T06:12:21;34.80;;;13.83;;
82835;SDS011;72587;50.746;8.246;2023-12-04T06:14:47;38.23;;;14.53;;
82835;SDS011;72587;50.746;8.246;2023-12-04T06:17:12;36.90;;;16.80;;
82835;SDS011;72587;50.746;8.246;2023-12-04T06:19:38;32.77;;;13.40;;
82835;SDS011;72587;50.746;8.246;2023-12-04T06:22:03;37.80;;;14.83;;
82835;SDS011;72587;50.746;8.246;2023-12-04T06:24:30;34.63;;;13.63;;
82835;SDS011;72587;50.746;8.246;2023-12-04T06:26:56;30.03;;;12.77;;
82835;SDS011;72587;50.746;8.246;2023-12-04T06:29:23;33.97;;;14.53;;
82835;SDS011;72587;50.746;8.246;2023-12-04T06:31:49;33.77;;;15.53;;
82835;SDS011;72587;50.746;8.246;2023-12-04T06:34:15;38.10;;;18.23;;
82835;SDS011;72587;50.746;8.246;2023-12-04T06:36:41;37.27;;;15.20;;
82835;SDS011;72587;50.746;8.246;2023-12-04T06:39:08;38.47;;;16.33;;
82835;SDS011;72587;50.746;8.246;2023-12-04T06:41:35;31.70;;;14.03;;
82835;SDS011;72587;50.746;8.246;2023-12-04T06:44:01;31.57;;;13.23;;
82835;SDS011;72587;50.746;8.246;2023-12-04T06:46:28;37.40;;;14.97;;
82835;SDS011;72587;50.746;8.246;2023-12-04T06:48:58;32.23;;;14.00;;
82835;SDS011;72587;50.746;8.246;2023-12-04T06:51:24;35.80;;;14.73;;
82835;SDS011;72587;50.746;8.246;2023-12-04T06:53:50;33.40;;;12.93;;
82835;SDS011;72587;50.746;8.246;2023-12-04T06:56:16;33.90;;;13.90;;
82835;SDS011;72587;50.746;8.246;2023-12-04T06:58:41;33.80;;;14.17;;
82835;SDS011;72587;50.746;8.246;2023-12-04T07:01:07;37.50;;;13.87;;
82835;SDS011;72587;50.746;8.246;2023-12-04T07:03:32;34.27;;;14.20;;
82835;SDS011;72587;50.746;8.246;2023-12-04T07:05:58;34.77;;;13.30;;
82835;SDS011;72587;50.746;8.246;2023-12-04T07:08:24;30.53;;;12.77;;
82835;SDS011;72587;50.746;8.246;2023-12-04T07:10:50;36.40;;;13.93;;
82835;SDS011;72587;50.746;8.246;2023-12-04T07:13:15;37.37;;;14.60;;
82835;SDS011;72587;50.746;8.246;2023-12-04T07:15:41;35.77;;;13.47;;
82835;SDS011;72587;50.746;8.246;2023-12-04T07:18:06;37.37;;;15.37;;
82835;SDS011;72587;50.746;8.246;2023-12-04T07:20:32;35.93;;;15.63;;
82835;SDS011;72587;50.746;8.246;2023-12-04T07:22:58;37.40;;;14.20;;
82835;SDS011;72587;50.746;8.246;2023-12-04T07:25:23;37.13;;;14.70;;
82835;SDS011;72587;50.746;8.246;2023-12-04T07:27:49;35.40;;;15.30;;
82835;SDS011;72587;50.746;8.246;2023-12-04T07:30:15;37.93;;;14.67;;
82835;SDS011;72587;50.746;8.246;2023-12-04T07:32:41;34.00;;;14.57;;
82835;SDS011;72587;50.746;8.246;2023-12-04T07:35:06;37.67;;;15.23;;
82835;SDS011;72587;50.746;8.246;2023-12-04T07:37:32;35.53;;;13.77;;
82835;SDS011;72587;50.746;8.246;2023-12-04T07:39:58;34.77;;;14.33;;
82835;SDS011;72587;50.746;8.246;2023-12-04T07:42:24;34.00;;;14.47;;
82835;SDS011;72587;50.746;8.246;2023-12-04T07:44:49;35.80;;;14.47;;
82835;SDS011;72587;50.746;8.246;2023-12-04T07:47:15;32.30;;;14.33;;
82835;SDS011;72587;50.746;8.246;2023-12-04T07:49:41;46.70;;;19.93;;
82835;SDS011;72587;50.746;8.246;2023-12-04T07:52:07;39.20;;;15.47;;
82835;SDS011;72587;50.746;8.246;2023-12-04T07:54:33;44.03;;;18.60;;
82835;SDS011;72587;50.746;8.246;2023-12-04T07:56:59;37.77;;;16.07;;
82835;SDS011;72587;50.746;8.246;2023-12-04T07:59:25;33.97;;;14.90;;
82835;SDS011;72587;50.746;8.246;2023-12-04T08:01:51;34.27;;;15.07;;
82835;SDS011;72587;50.746;8.246;2023-12-04T08:04:16;39.90;;;14.83;;
82835;SDS011;72587;50.746;8.246;2023-12-04T08:06:42;45.27;;;18.17;;
82835;SDS011;72587;50.746;8.246;2023-12-04T08:09:07;35.57;;;14.60;;
82835;SDS011;72587;50.746;8.246;2023-12-04T08:11:35;36.63;;;14.77;;
82835;SDS011;72587;50.746;8.246;2023-12-04T08:14:01;33.00;;;13.50;;
82835;SDS011;72587;50.746;8.246;2023-12-04T08:16:28;34.90;;;15.60;;
82835;SDS011;72587;50.746;8.246;2023-12-04T08:18:54;35.30;;;14.53;;
82835;SDS011;72587;50.746;8.246;2023-12-04T08:21:20;33.07;;;14.77;;
82835;SDS011;72587;50.746;8.246;2023-12-04T08:23:46;33.50;;;13.63;;
82835;SDS011;72587;50.746;8.246;2023-12-04T08:26:12;31.57;;;12.77;;
82835;SDS011;72587;50.746;8.246;2023-12-04T08:28:37;32.87;;;12.83;;
82835;SDS011;72587;50.746;8.246;2023-12-04T08:31:07;31.10;;;13.60;;
82835;SDS011;72587;50.746;8.246;2023-12-04T08:33:34;34.13;;;13.57;;
82835;SDS011;72587;50.746;8.246;2023-12-04T08:36:00;31.50;;;13.03;;
82835;SDS011;72587;50.746;8.246;2023-12-04T08:38:25;32.80;;;13.83;;
82835;SDS011;72587;50.746;8.246;2023-12-04T08:40:51;28.87;;;13.20;;
82835;SDS011;72587;50.746;8.246;2023-12-04T08:43:17;29.47;;;12.83;;
82835;SDS011;72587;50.746;8.246;2023-12-04T08:45:43;34.00;;;14.37;;
82835;SDS011;72587;50.746;8.246;2023-12-04T08:48:10;23.77;;;11.13;;
82835;SDS011;72587;50.746;8.246;2023-12-04T08:50:35;35.47;;;14.63;;
82835;SDS011;72587;50.746;8.246;2023-12-04T08:53:02;28.13;;;12.00;;
82835;SDS011;72587;50.746;8.246;2023-12-04T08:55:28;33.17;;;13.67;;
82835;SDS011;72587;50.746;8.246;2023-12-04T08:57:54;34.87;;;13.63;;
82835;SDS011;72587;50.746;8.246;2023-12-04T09:00:20;36.10;;;14.77;;
82835;SDS011;72587;50.746;8.246;2023-12-04T09:02:46;33.57;;;13.13;;
82835;SDS011;72587;50.746;8.246;2023-12-04T09:05:12;31.57;;;13.80;;
82835;SDS011;72587;50.746;8.246;2023-12-04T09:07:38;35.10;;;14.67;;
82835;SDS011;72587;50.746;8.246;2023-12-04T09:10:03;31.13;;;13.10;;
82835;SDS011;72587;50.746;8.246;2023-12-04T09:12:29;32.23;;;14.07;;
82835;SDS011;72587;50.746;8.246;2023-12-04T09:14:55;30.30;;;13.37;;
82835;SDS011;72587;50.746;8.246;2023-12-04T09:17:20;30.60;;;12.97;;
82835;SDS011;72587;50.746;8.246;2023-12-04T09:19:46;30.07;;;11.83;;
82835;SDS011;72587;50.746;8.246;2023-12-04T09:22:11;31.90;;;12.53;;
82835;SDS011;72587;50.746;8.246;2023-12-04T09:24:37;29.77;;;12.87;;
82835;SDS011;72587;50.746;8.246;2023-12-04T09:27:03;29.80;;;12.03;;
82835;SDS011;72587;50.746;8.246;2023-12-04T09:29:28;25.73;;;11.87;;
82835;SDS011;72587;50.746;8.246;2023-12-04T09:31:54;32.80;;;13.63;;
82835;SDS011;72587;50.746;8.246;2023-12-04T09:34:19;29.27;;;12.00;;
82835;SDS011;72587;50.746;8.246;2023-12-04T09:36:46;33.97;;;13.03;;
82835;SDS011;72587;50.746;8.246;2023-12-04T09:39:13;23.50;;;10.67;;
82835;SDS011;72587;50.746;8.246;2023-12-04T09:41:39;34.80;;;14.00;;
82835;SDS011;72587;50.746;8.246;2023-12-04T09:44:07;28.70;;;11.53;;
82835;SDS011;72587;50.746;8.246;2023-12-04T09:46:33;27.63;;;11.17;;
82835;SDS011;72587;50.746;8.246;2023-12-04T09:48:59;27.43;;;11.77;;
82835;SDS011;72587;50.746;8.246;2023-12-04T09:51:27;26.90;;;11.57;;
82835;SDS011;72587;50.746;8.246;2023-12-04T09:53:52;28.07;;;11.53;;
82835;SDS011;72587;50.746;8.246;2023-12-04T09:56:20;24.73;;;11.60;;
82835;SDS011;72587;50.746;8.246;2023-12-04T09:58:47;28.03;;;11.40;;
82835;SDS011;72587;50.746;8.246;2023-12-04T10:01:17;25.57;;;11.30;;
82835;SDS011;72587;50.746;8.246;2023-12-04T10:03:43;25.07;;;11.00;;
82835;SDS011;72587;50.746;8.246;2023-12-04T10:06:09;24.10;;;10.80;;
82835;SDS011;72587;50.746;8.246;2023-12-04T10:08:42;28.83;;;10.93;;
82835;SDS011;72587;50.746;8.246;2023-12-04T10:11:09;26.63;;;11.70;;
82835;SDS011;72587;50.746;8.246;2023-12-04T10:13:35;25.57;;;10.70;;
82835;SDS011;72587;50.746;8.246;2023-12-04T10:16:01;25.53;;;10.87;;
82835;SDS011;72587;50.746;8.246;2023-12-04T10:18:28;33.57;;;11.40;;
82835;SDS011;72587;50.746;8.246;2023-12-04T10:20:58;23.60;;;10.90;;
82835;SDS011;72587;50.746;8.246;2023-12-04T10:23:37;23.63;;;10.67;;
82835;SDS011;72587;50.746;8.246;2023-12-04T10:26:05;32.20;;;11.53;;
82835;SDS011;72587;50.746;8.246;2023-12-04T10:28:32;25.33;;;10.77;;
82835;SDS011;72587;50.746;8.246;2023-12-04T10:30:58;24.23;;;10.37;;
82835;SDS011;72587;50.746;8.246;2023-12-04T10:33:28;26.83;;;10.70;;
82835;SDS011;72587;50.746;8.246;2023-12-04T10:35:55;29.60;;;11.47;;
82835;SDS011;72587;50.746;8.246;2023-12-04T10:38:21;23.97;;;10.63;;
82835;SDS011;72587;50.746;8.246;2023-12-04T10:40:47;27.60;;;10.43;;
82835;SDS011;72587;50.746;8.246;2023-12-04T10:43:19;22.77;;;10.07;;
82835;SDS011;72587;50.746;8.246;2023-12-04T10:45:47;24.43;;;10.17;;
82835;SDS011;72587;50.746;8.246;2023-12-04T10:48:14;33.17;;;11.20;;
82835;SDS011;72587;50.746;8.246;2023-12-04T10:50:41;28.97;;;11.27;;
82835;SDS011;72587;50.746;8.246;2023-12-04T10:53:08;24.77;;;11.13;;
82835;SDS011;72587;50.746;8.246;2023-12-04T10:55:36;29.30;;;11.50;;
82835;SDS011;72587;50.746;8.246;2023-12-04T10:58:04;27.07;;;11.37;;
82835;SDS011;72587;50.746;8.246;2023-12-04T11:00:32;27.70;;;11.80;;
82835;SDS011;72587;50.746;8.246;2023-12-04T11:03:03;27.23;;;11.30;;
82835;SDS011;72587;50.746;8.246;2023-12-04T11:05:33;29.30;;;11.73;;
82835;SDS011;72587;50.746;8.246;2023-12-04T11:08:02;26.47;;;10.53;;
82835;SDS011;72587;50.746;8.246;2023-12-04T11:10:31;27.77;;;10.93;;
82835;SDS011;72587;50.746;8.246;2023-12-04T11:13:02;30.07;;;12.30;;
82835;SDS011;72587;50.746;8.246;2023-12-04T11:15:39;25.07;;;11.47;;
82835;SDS011;72587;50.746;8.246;2023-12-04T11:18:07;30.53;;;11.50;;
82835;SDS011;72587;50.746;8.246;2023-12-04T11:20:35;25.00;;;10.30;;
82835;SDS011;72587;50.746;8.246;2023-12-04T11:23:05;26.83;;;10.47;;
82835;SDS011;72587;50.746;8.246;2023-12-04T11:25:33;26.67;;;12.17;;
82835;SDS011;72587;50.746;8.246;2023-12-04T11:28:02;29.40;;;12.37;;
82835;SDS011;72587;50.746;8.246;2023-12-04T11:30:29;32.13;;;13.37;;
82835;SDS011;72587;50.746;8.246;2023-12-04T11:32:55;34.57;;;13.57;;
82835;SDS011;72587;50.746;8.246;2023-12-04T11:35:21;34.63;;;13.93;;
82835;SDS011;72587;50.746;8.246;2023-12-04T11:37:51;30.33;;;12.87;;
82835;SDS011;72587;50.746;8.246;2023-12-04T11:40:17;31.70;;;12.97;;
82835;SDS011;72587;50.746;8.246;2023-12-04T11:42:43;29.53;;;11.93;;
82835;SDS011;72587;50.746;8.246;2023-12-04T11:45:09;26.37;;;11.70;;
82835;SDS011;72587;50.746;8.246;2023-12-04T11:50:20;25.93;;;11.87;;
82835;SDS011;72587;50.746;8.246;2023-12-04T11:52:47;25.30;;;10.67;;
82835;SDS011;72587;50.746;8.246;2023-12-04T11:55:15;28.43;;;12.47;;
82835;SDS011;72587;50.746;8.246;2023-12-04T11:57:51;28.20;;;12.13;;
82835;SDS011;72587;50.746;8.246;2023-12-04T12:00:19;32.93;;;13.00;;
82835;SDS011;72587;50.746;8.246;2023-12-04T12:05:22;27.87;;;11.53;;
82835;SDS011;72587;50.746;8.246;2023-12-04T12:07:48;26.53;;;10.33;;
82835;SDS011;72587;50.746;8.246;2023-12-04T12:10:15;31.03;;;11.67;;
82835;SDS011;72587;50.746;8.246;2023-12-04T12:12:42;25.73;;;11.13;;
82835;SDS011;72587;50.746;8.246;2023-12-04T12:15:08;31.90;;;12.93;;
82835;SDS011;72587;50.746;8.246;2023-12-04T12:17:35;31.73;;;13.80;;
82835;SDS011;72587;50.746;8.246;2023-12-04T12:20:02;34.83;;;12.47;;
82835;SDS011;72587;50.746;8.246;2023-12-04T12:22:31;25.63;;;11.33;;
82835;SDS011;72587;50.746;8.246;2023-12-04T12:24:58;29.90;;;12.67;;
82835;SDS011;72587;50.746;8.246;2023-12-04T12:27:24;31.23;;;12.93;;
82835;SDS011;72587;50.746;8.246;2023-12-04T12:29:50;27.43;;;12.13;;
82835;SDS011;72587;50.746;8.246;2023-12-04T12:32:15;26.50;;;12.30;;
82835;SDS011;72587;50.746;8.246;2023-12-04T12:34:41;28.87;;;12.27;;
82835;SDS011;72587;50.746;8.246;2023-12-04T12:37:07;31.20;;;12.27;;
82835;SDS011;72587;50.746;8.246;2023-12-04T12:39:33;26.60;;;11.80;;
82835;SDS011;72587;50.746;8.246;2023-12-04T12:42:00;28.83;;;12.43;;
82835;SDS011;72587;50.746;8.246;2023-12-04T12:44:26;30.13;;;12.60;;
82835;SDS011;72587;50.746;8.246;2023-12-04T12:46:52;25.13;;;11.53;;
82835;SDS011;72587;50.746;8.246;2023-12-04T12:49:18;28.33;;;12.13;;
82835;SDS011;72587;50.746;8.246;2023-12-04T12:51:47;27.33;;;11.23;;
82835;SDS011;72587;50.746;8.246;2023-12-04T12:54:13;30.43;;;13.30;;
82835;SDS011;72587;50.746;8.246;2023-12-04T12:56:39;27.13;;;12.50;;
82835;SDS011;72587;50.746;8.246;2023-12-04T12:59:05;31.67;;;13.57;;
82835;SDS011;72587;50.746;8.246;2023-12-04T13:01:31;30.87;;;12.30;;
82835;SDS011;72587;50.746;8.246;2023-12-04T13:03:57;29.03;;;12.67;;
82835;SDS011;72587;50.746;8.246;2023-12-04T13:06:23;33.63;;;14.10;;
82835;SDS011;72587;50.746;8.246;2023-12-04T13:08:49;30.93;;;12.50;;
82835;SDS011;72587;50.746;8.246;2023-12-04T13:11:15;29.07;;;12.57;;
82835;SDS011;72587;50.746;8.246;2023-12-04T13:13:40;30.63;;;13.23;;
82835;SDS011;72587;50.746;8.246;2023-12-04T13:16:06;33.60;;;14.10;;
82835;SDS011;72587;50.746;8.246;2023-12-04T13:18:32;31.07;;;13.33;;
82835;SDS011;72587;50.746;8.246;2023-12-04T13:21:00;30.97;;;13.17;;
82835;SDS011;72587;50.746;8.246;2023-12-04T13:23:26;27.53;;;12.40;;
82835;SDS011;72587;50.746;8.246;2023-12-04T13:25:52;31.53;;;13.77;;
82835;SDS011;72587;50.746;8.246;2023-12-04T13:28:19;35.50;;;13.97;;
82835;SDS011;72587;50.746;8.246;2023-12-04T13:30:45;29.17;;;12.07;;
82835;SDS011;72587;50.746;8.246;2023-12-04T13:33:11;33.73;;;13.33;;
82835;SDS011;72587;50.746;8.246;2023-12-04T13:35:36;31.40;;;13.23;;
82835;SDS011;72587;50.746;8.246;2023-12-04T13:38:02;28.33;;;13.07;;
82835;SDS011;72587;50.746;8.246;2023-12-04T13:40:27;30.43;;;12.83;;
82835;SDS011;72587;50.746;8.246;2023-12-04T13:42:57;36.03;;;14.07;;
82835;SDS011;72587;50.746;8.246;2023-12-04T13:45:41;28.63;;;12.70;;
82835;SDS011;72587;50.746;8.246;2023-12-04T13:48:07;31.23;;;12.60;;
82835;SDS011;72587;50.746;8.246;2023-12-04T13:50:32;39.63;;;14.37;;
82835;SDS011;72587;50.746;8.246;2023-12-04T13:52:58;40.63;;;16.50;;
82835;SDS011;72587;50.746;8.246;2023-12-04T13:55:24;36.07;;;14.87;;
82835;SDS011;72587;50.746;8.246;2023-12-04T13:58:21;31.77;;;12.93;;
82835;SDS011;72587;50.746;8.246;2023-12-04T14:01:10;29.27;;;12.90;;
82835;SDS011;72587;50.746;8.246;2023-12-04T14:03:42;31.47;;;12.63;;
82835;SDS011;72587;50.746;8.246;2023-12-04T14:06:08;27.83;;;11.97;;
82835;SDS011;72587;50.746;8.246;2023-12-04T14:08:34;26.87;;;11.87;;
82835;SDS011;72587;50.746;8.246;2023-12-04T14:11:01;30.40;;;12.30;;
82835;SDS011;72587;50.746;8.246;2023-12-04T14:13:27;25.83;;;11.50;;
82835;SDS011;72587;50.746;8.246;2023-12-04T14:15:53;29.80;;;13.40;;
82835;SDS011;72587;50.746;8.246;2023-12-04T14:18:19;29.87;;;12.63;;
82835;SDS011;72587;50.746;8.246;2023-12-04T14:20:45;30.37;;;13.10;;